createdAt,value
2019-03-22T00:05:04.849Z,46.68
2019-03-22T00:15:10.029Z,40.87
2019-03-22T00:25:15.041Z,41.63
2019-03-22T00:35:21.065Z,39.58
2019-03-22T00:45:25.953Z,40.87
2019-03-22T00:55:30.945Z,39.13
2019-03-22T01:05:35.940Z,35.78
2019-03-22T01:15:40.953Z,35.07
2019-03-22T01:25:47.464Z,34.57
2019-03-22T01:35:52.404Z,35.13
2019-03-22T01:45:57.347Z,34.47
2019-03-22T01:56:02.437Z,32.37
2019-03-22T02:06:07.432Z,33.17
2019-03-22T02:16:12.368Z,37.80
2019-03-22T02:26:17.314Z,37.90
2019-03-22T02:36:22.225Z,35.20
2019-03-22T02:46:27.127Z,34.67
2019-03-22T02:56:32.307Z,33.30
2019-03-22T03:06:37.191Z,32.70
2019-03-22T03:16:42.178Z,35.30
2019-03-22T03:26:47.160Z,34.70
2019-03-22T03:36:52.056Z,43.23
2019-03-22T03:46:57.055Z,36.50
2019-03-22T03:57:02.106Z,35.60
2019-03-22T04:07:07.047Z,35.97
2019-03-22T04:17:12.059Z,33.55
2019-03-22T04:27:17.040Z,34.15
2019-03-22T04:37:22.018Z,32.77
2019-03-22T04:47:27.540Z,34.43
2019-03-22T04:57:33.669Z,36.47
2019-03-22T05:07:39.069Z,30.93
2019-03-22T05:17:45.599Z,30.63
2019-03-22T05:27:51.575Z,33.63
2019-03-22T05:37:56.692Z,31.57
2019-03-22T05:48:01.585Z,41.07
2019-03-22T05:58:06.688Z,37.13
2019-03-22T06:08:11.564Z,38.80
2019-03-22T06:18:17.589Z,40.28
2019-03-22T06:28:22.482Z,40.10
2019-03-22T06:38:27.462Z,45.20
2019-03-22T06:48:32.468Z,42.17
2019-03-22T06:58:37.454Z,40.00
2019-03-22T07:08:42.480Z,37.37
2019-03-22T07:18:47.460Z,34.10
2019-03-22T07:28:52.326Z,33.23
2019-03-22T07:38:57.226Z,33.03
2019-03-22T07:49:02.112Z,33.07
2019-03-22T07:59:09.757Z,32.23
2019-03-22T08:09:13.959Z,29.27
2019-03-22T08:19:18.873Z,30.30
2019-03-22T08:29:23.838Z,28.67
2019-03-22T08:39:28.833Z,34.27
2019-03-22T08:49:34.105Z,28.33
2019-03-22T08:59:39.251Z,35.87
2019-03-22T09:09:44.222Z,38.90
2019-03-22T09:19:51.142Z,32.47
2019-03-22T09:29:55.869Z,31.23
2019-03-22T09:40:00.866Z,33.40
2019-03-22T09:50:08.597Z,32.57
2019-03-22T10:00:16.448Z,34.10
2019-03-22T10:10:21.754Z,33.97
2019-03-22T10:20:26.854Z,26.03
2019-03-22T10:30:31.854Z,28.73
2019-03-22T10:40:36.850Z,26.57
2019-03-22T10:50:41.838Z,26.33
2019-03-22T11:00:46.933Z,23.83
2019-03-22T11:10:51.913Z,40.80
2019-03-22T11:21:04.725Z,29.50
2019-03-22T11:31:05.027Z,20.73
2019-03-22T11:41:11.204Z,28.70
2019-03-22T11:51:16.183Z,22.93
2019-03-22T12:01:22.500Z,22.50
2019-03-22T12:11:27.706Z,32.47
2019-03-22T12:21:33.244Z,19.53
2019-03-22T12:31:38.211Z,24.30
2019-03-22T12:41:43.095Z,25.32
2019-03-22T12:51:48.205Z,27.20
2019-03-22T13:01:53.296Z,26.73
2019-03-22T13:11:58.393Z,26.03
2019-03-22T13:22:03.328Z,24.37
2019-03-22T13:32:08.263Z,26.05
2019-03-22T13:42:13.160Z,21.97
2019-03-22T13:52:18.161Z,21.20
2019-03-22T14:02:23.251Z,25.73
2019-03-22T14:12:50.003Z,20.53
2019-03-22T14:22:55.397Z,21.50
2019-03-22T14:33:01.235Z,34.90
2019-03-22T14:43:08.357Z,15.43
2019-03-22T14:53:13.924Z,23.62
2019-03-22T15:03:25.367Z,18.67
2019-03-22T15:13:31.895Z,18.15
2019-03-22T15:24:03.114Z,18.07
2019-03-22T15:34:04.711Z,21.92
2019-03-22T15:44:09.637Z,18.78
2019-03-22T15:54:43.823Z,18.47
2019-03-22T16:04:54.923Z,21.93
2019-03-22T16:14:59.919Z,28.90
2019-03-22T16:25:08.119Z,20.80
2019-03-22T16:35:13.376Z,19.73
2019-03-22T16:45:21.335Z,20.43
2019-03-22T16:55:26.324Z,19.37
2019-03-22T17:05:31.652Z,17.63
2019-03-22T17:15:36.643Z,24.13
2019-03-22T17:25:41.710Z,26.53
2019-03-22T17:35:46.712Z,29.90
2019-03-22T17:45:51.599Z,30.20
2019-03-22T17:55:56.589Z,27.50
2019-03-22T18:06:01.735Z,38.33
2019-03-22T18:16:06.921Z,45.97
2019-03-22T18:26:12.444Z,47.50
2019-03-22T18:36:17.846Z,75.10
2019-03-22T18:46:24.569Z,47.57
2019-03-22T18:56:29.790Z,75.27
2019-03-22T19:06:35.134Z,58.90
2019-03-22T19:16:40.329Z,157.50
2019-03-22T19:26:45.599Z,134.67
2019-03-22T19:36:51.149Z,105.17
2019-03-22T19:46:56.184Z,89.07
2019-03-22T19:57:01.443Z,70.07
2019-03-22T20:07:06.704Z,67.07
2019-03-22T20:17:12.007Z,78.95
2019-03-22T20:27:17.255Z,78.70
2019-03-22T20:37:22.373Z,111.37
2019-03-22T20:47:27.623Z,102.30
2019-03-22T20:57:32.866Z,80.50
2019-03-22T21:07:38.087Z,61.20
2019-03-22T21:17:43.313Z,53.40
2019-03-22T21:27:48.722Z,45.10
2019-03-22T21:37:53.918Z,45.77
2019-03-22T21:47:59.292Z,61.77
2019-03-22T21:58:04.930Z,46.13
2019-03-22T22:08:10.032Z,48.73
2019-03-22T22:18:15.030Z,36.93
2019-03-22T22:28:20.247Z,39.45
2019-03-22T22:38:25.218Z,35.07
2019-03-22T22:48:30.201Z,41.37
2019-03-22T22:58:35.194Z,39.47
2019-03-22T23:08:41.415Z,46.47
2019-03-22T23:18:46.420Z,36.37
2019-03-22T23:29:16.093Z,41.90
2019-03-22T23:39:22.214Z,72.50
2019-03-22T23:49:27.204Z,34.33
2019-03-22T23:59:32.195Z,31.23
